sensor_id;sensor_type;location;lat;lon;timestamp;temperature;humidity
70460;DHT22;57920;54.796;9.430;2022-11-11T00:00:30;18.90;58.40
70460;DHT22;57920;54.796;9.430;2022-11-11T00:02:56;18.90;58.40
70460;DHT22;57920;54.796;9.430;2022-11-11T00:05:22;19.00;58.40
70460;DHT22;57920;54.796;9.430;2022-11-11T00:07:48;18.90;58.40
70460;DHT22;57920;54.796;9.430;2022-11-11T00:10:13;19.00;58.40
70460;DHT22;57920;54.796;9.430;2022-11-11T00:12:39;18.90;58.40
70460;DHT22;57920;54.796;9.430;2022-11-11T00:15:05;18.90;58.50
70460;DHT22;57920;54.796;9.430;2022-11-11T00:17:33;18.90;58.40
70460;DHT22;57920;54.796;9.430;2022-11-11T00:20:17;18.90;58.40
70460;DHT22;57920;54.796;9.430;2022-11-11T00:23:01;18.90;58.40
70460;DHT22;57920;54.796;9.430;2022-11-11T00:25:46;18.90;58.50
70460;DHT22;57920;54.796;9.430;2022-11-11T00:28:16;18.90;58.50
70460;DHT22;57920;54.796;9.430;2022-11-11T00:30:41;18.90;58.40
70460;DHT22;57920;54.796;9.430;2022-11-11T00:33:07;18.90;58.50
70460;DHT22;57920;54.796;9.430;2022-11-11T00:35:33;18.90;58.50
70460;DHT22;57920;54.796;9.430;2022-11-11T00:38:16;18.90;58.40
70460;DHT22;57920;54.796;9.430;2022-11-11T00:41:01;18.90;58.40
70460;DHT22;57920;54.796;9.430;2022-11-11T00:43:27;18.90;58.50
70460;DHT22;57920;54.796;9.430;2022-11-11T00:45:52;18.90;58.50
70460;DHT22;57920;54.796;9.430;2022-11-11T00:48:18;18.90;58.50
70460;DHT22;57920;54.796;9.430;2022-11-11T00:51:03;18.90;58.40
70460;DHT22;57920;54.796;9.430;2022-11-11T00:53:30;18.90;58.50
70460;DHT22;57920;54.796;9.430;2022-11-11T00:55:57;18.90;58.50
70460;DHT22;57920;54.796;9.430;2022-11-11T00:58:23;18.90;58.50
70460;DHT22;57920;54.796;9.430;2022-11-11T01:00:49;18.90;58.50
70460;DHT22;57920;54.796;9.430;2022-11-11T01:03:18;18.90;58.50
70460;DHT22;57920;54.796;9.430;2022-11-11T01:05:43;18.90;58.50
70460;DHT22;57920;54.796;9.430;2022-11-11T01:08:09;18.90;58.50
70460;DHT22;57920;54.796;9.430;2022-11-11T01:10:36;18.90;58.50
70460;DHT22;57920;54.796;9.430;2022-11-11T01:13:20;18.90;58.50
70460;DHT22;57920;54.796;9.430;2022-11-11T01:15:48;18.90;58.50
70460;DHT22;57920;54.796;9.430;2022-11-11T01:18:18;18.90;58.50
70460;DHT22;57920;54.796;9.430;2022-11-11T01:20:44;18.90;58.40
70460;DHT22;57920;54.796;9.430;2022-11-11T01:23:11;18.90;58.50
70460;DHT22;57920;54.796;9.430;2022-11-11T01:25:40;18.90;58.50
70460;DHT22;57920;54.796;9.430;2022-11-11T01:28:07;18.90;58.50
70460;DHT22;57920;54.796;9.430;2022-11-11T01:30:34;18.90;58.50
70460;DHT22;57920;54.796;9.430;2022-11-11T01:33:00;18.90;58.50
70460;DHT22;57920;54.796;9.430;2022-11-11T01:35:27;18.90;58.50
70460;DHT22;57920;54.796;9.430;2022-11-11T01:37:53;18.90;58.50
70460;DHT22;57920;54.796;9.430;2022-11-11T01:40:18;18.90;58.50
70460;DHT22;57920;54.796;9.430;2022-11-11T01:48:40;18.90;58.50
70460;DHT22;57920;54.796;9.430;2022-11-11T01:57:17;18.80;58.40
70460;DHT22;57920;54.796;9.430;2022-11-11T01:59:45;18.90;58.50
70460;DHT22;57920;54.796;9.430;2022-11-11T02:02:23;18.90;58.50
70460;DHT22;57920;54.796;9.430;2022-11-11T02:04:50;18.90;58.50
70460;DHT22;57920;54.796;9.430;2022-11-11T02:07:35;18.90;58.50
70460;DHT22;57920;54.796;9.430;2022-11-11T02:10:04;18.90;58.50
70460;DHT22;57920;54.796;9.430;2022-11-11T02:12:31;18.90;58.50
70460;DHT22;57920;54.796;9.430;2022-11-11T02:15:16;18.80;58.50
70460;DHT22;57920;54.796;9.430;2022-11-11T02:17:41;18.80;58.50
70460;DHT22;57920;54.796;9.430;2022-11-11T02:20:09;18.90;58.50
70460;DHT22;57920;54.796;9.430;2022-11-11T02:23:00;18.80;58.50
70460;DHT22;57920;54.796;9.430;2022-11-11T02:25:30;18.80;58.50
70460;DHT22;57920;54.796;9.430;2022-11-11T02:28:00;18.80;58.50
70460;DHT22;57920;54.796;9.430;2022-11-11T02:30:26;18.80;58.60
70460;DHT22;57920;54.796;9.430;2022-11-11T02:32:53;18.80;58.60
70460;DHT22;57920;54.796;9.430;2022-11-11T02:36:03;18.80;58.50
70460;DHT22;57920;54.796;9.430;2022-11-11T02:38:09;18.80;58.50
70460;DHT22;57920;54.796;9.430;2022-11-11T02:40:42;18.80;58.50
70460;DHT22;57920;54.796;9.430;2022-11-11T02:43:29;18.80;58.50
70460;DHT22;57920;54.796;9.430;2022-11-11T02:45:55;18.80;58.50
70460;DHT22;57920;54.796;9.430;2022-11-11T02:48:21;18.90;58.50
70460;DHT22;57920;54.796;9.430;2022-11-11T02:50:48;18.80;58.50
70460;DHT22;57920;54.796;9.430;2022-11-11T02:53:13;18.80;58.50
70460;DHT22;57920;54.796;9.430;2022-11-11T02:55:39;18.80;58.50
70460;DHT22;57920;54.796;9.430;2022-11-11T02:58:04;18.90;58.50
70460;DHT22;57920;54.796;9.430;2022-11-11T03:00:30;18.80;58.50
70460;DHT22;57920;54.796;9.430;2022-11-11T03:02:56;18.90;58.50
70460;DHT22;57920;54.796;9.430;2022-11-11T03:05:22;18.90;58.50
70460;DHT22;57920;54.796;9.430;2022-11-11T03:07:48;18.90;58.50
70460;DHT22;57920;54.796;9.430;2022-11-11T03:10:13;18.90;58.40
70460;DHT22;57920;54.796;9.430;2022-11-11T03:12:39;18.90;58.40
70460;DHT22;57920;54.796;9.430;2022-11-11T03:15:05;18.90;58.50
70460;DHT22;57920;54.796;9.430;2022-11-11T03:17:31;18.90;58.40
70460;DHT22;57920;54.796;9.430;2022-11-11T03:23:13;18.90;58.40
70460;DHT22;57920;54.796;9.430;2022-11-11T03:25:44;18.90;58.40
70460;DHT22;57920;54.796;9.430;2022-11-11T03:28:15;18.90;58.50
70460;DHT22;57920;54.796;9.430;2022-11-11T03:30:44;18.90;58.40
70460;DHT22;57920;54.796;9.430;2022-11-11T03:33:10;18.90;58.50
70460;DHT22;57920;54.796;9.430;2022-11-11T03:35:36;18.90;58.50
70460;DHT22;57920;54.796;9.430;2022-11-11T03:38:03;18.90;58.40
70460;DHT22;57920;54.796;9.430;2022-11-11T03:40:50;18.90;58.50
70460;DHT22;57920;54.796;9.430;2022-11-11T03:43:18;18.90;58.50
70460;DHT22;57920;54.796;9.430;2022-11-11T03:45:45;18.90;58.50
70460;DHT22;57920;54.796;9.430;2022-11-11T03:48:11;18.80;58.50
70460;DHT22;57920;54.796;9.430;2022-11-11T03:50:37;18.90;58.50
70460;DHT22;57920;54.796;9.430;2022-11-11T03:53:03;18.90;58.50
70460;DHT22;57920;54.796;9.430;2022-11-11T03:55:29;18.90;58.50
70460;DHT22;57920;54.796;9.430;2022-11-11T03:57:55;18.80;58.50
70460;DHT22;57920;54.796;9.430;2022-11-11T04:00:25;18.80;58.50
70460;DHT22;57920;54.796;9.430;2022-11-11T04:03:04;18.90;58.50
70460;DHT22;57920;54.796;9.430;2022-11-11T04:05:48;18.90;58.50
70460;DHT22;57920;54.796;9.430;2022-11-11T04:08:32;18.90;58.50
70460;DHT22;57920;54.796;9.430;2022-11-11T04:11:26;18.90;58.50
70460;DHT22;57920;54.796;9.430;2022-11-11T04:13:53;18.90;58.50
70460;DHT22;57920;54.796;9.430;2022-11-11T04:16:39;18.80;58.50
70460;DHT22;57920;54.796;9.430;2022-11-11T04:19:04;18.80;58.50
70460;DHT22;57920;54.796;9.430;2022-11-11T04:21:49;18.90;58.50
70460;DHT22;57920;54.796;9.430;2022-11-11T04:24:19;18.90;58.50
70460;DHT22;57920;54.796;9.430;2022-11-11T04:27:08;18.90;58.50
70460;DHT22;57920;54.796;9.430;2022-11-11T04:29:34;18.80;58.50
70460;DHT22;57920;54.796;9.430;2022-11-11T04:34:50;18.90;58.50
70460;DHT22;57920;54.796;9.430;2022-11-11T04:37:17;18.90;58.50
70460;DHT22;57920;54.796;9.430;2022-11-11T04:39:43;18.90;58.50
70460;DHT22;57920;54.796;9.430;2022-11-11T04:42:28;18.90;58.40
70460;DHT22;57920;54.796;9.430;2022-11-11T04:44:55;18.90;58.50
70460;DHT22;57920;54.796;9.430;2022-11-11T04:48:03;18.90;58.50
70460;DHT22;57920;54.796;9.430;2022-11-11T04:50:34;18.90;58.40
70460;DHT22;57920;54.796;9.430;2022-11-11T04:53:00;18.90;58.50
70460;DHT22;57920;54.796;9.430;2022-11-11T04:55:27;18.90;58.50
70460;DHT22;57920;54.796;9.430;2022-11-11T04:58:11;18.90;58.50
70460;DHT22;57920;54.796;9.430;2022-11-11T05:00:37;18.90;58.50
70460;DHT22;57920;54.796;9.430;2022-11-11T05:03:03;18.90;58.40
70460;DHT22;57920;54.796;9.430;2022-11-11T05:05:54;18.90;58.50
70460;DHT22;57920;54.796;9.430;2022-11-11T05:08:41;18.90;58.50
70460;DHT22;57920;54.796;9.430;2022-11-11T05:11:27;18.80;58.50
70460;DHT22;57920;54.796;9.430;2022-11-11T05:13:55;18.80;58.50
70460;DHT22;57920;54.796;9.430;2022-11-11T05:16:42;18.90;58.50
70460;DHT22;57920;54.796;9.430;2022-11-11T05:19:27;18.90;58.50
70460;DHT22;57920;54.796;9.430;2022-11-11T05:24:54;18.80;58.50
70460;DHT22;57920;54.796;9.430;2022-11-11T05:27:39;18.90;58.50
70460;DHT22;57920;54.796;9.430;2022-11-11T05:30:07;18.90;58.50
70460;DHT22;57920;54.796;9.430;2022-11-11T05:32:32;18.90;58.50
70460;DHT22;57920;54.796;9.430;2022-11-11T05:34:58;18.90;58.50
70460;DHT22;57920;54.796;9.430;2022-11-11T05:37:24;18.90;58.50
70460;DHT22;57920;54.796;9.430;2022-11-11T05:39:49;18.90;58.50
70460;DHT22;57920;54.796;9.430;2022-11-11T05:42:15;18.90;58.50
70460;DHT22;57920;54.796;9.430;2022-11-11T05:44:40;18.90;58.50
70460;DHT22;57920;54.796;9.430;2022-11-11T05:47:06;18.90;58.50
70460;DHT22;57920;54.796;9.430;2022-11-11T05:49:32;18.90;58.50
70460;DHT22;57920;54.796;9.430;2022-11-11T05:51:58;18.90;58.40
70460;DHT22;57920;54.796;9.430;2022-11-11T05:54:23;18.90;58.50
70460;DHT22;57920;54.796;9.430;2022-11-11T05:56:49;18.90;58.50
70460;DHT22;57920;54.796;9.430;2022-11-11T05:59:15;18.90;58.50
70460;DHT22;57920;54.796;9.430;2022-11-11T06:01:40;18.90;58.40
70460;DHT22;57920;54.796;9.430;2022-11-11T06:04:06;18.90;58.40
70460;DHT22;57920;54.796;9.430;2022-11-11T06:06:33;18.90;58.40
70460;DHT22;57920;54.796;9.430;2022-11-11T06:08:59;18.90;58.50
70460;DHT22;57920;54.796;9.430;2022-11-11T06:11:24;18.90;58.40
70460;DHT22;57920;54.796;9.430;2022-11-11T06:13:52;18.90;58.40
70460;DHT22;57920;54.796;9.430;2022-11-11T06:16:17;18.90;58.50
70460;DHT22;57920;54.796;9.430;2022-11-11T06:18:43;18.90;58.40
70460;DHT22;57920;54.796;9.430;2022-11-11T06:21:09;18.90;58.40
70460;DHT22;57920;54.796;9.430;2022-11-11T06:23:34;18.90;58.50
70460;DHT22;57920;54.796;9.430;2022-11-11T06:26:00;18.90;58.40
70460;DHT22;57920;54.796;9.430;2022-11-11T06:28:48;18.90;58.50
70460;DHT22;57920;54.796;9.430;2022-11-11T06:31:17;18.90;58.50
70460;DHT22;57920;54.796;9.430;2022-11-11T06:33:43;18.90;58.50
70460;DHT22;57920;54.796;9.430;2022-11-11T06:36:11;18.90;58.50
70460;DHT22;57920;54.796;9.430;2022-11-11T06:38:38;18.90;58.50
70460;DHT22;57920;54.796;9.430;2022-11-11T06:41:04;18.90;58.50
70460;DHT22;57920;54.796;9.430;2022-11-11T06:43:30;18.90;58.50
70460;DHT22;57920;54.796;9.430;2022-11-11T06:45:56;18.90;58.50
70460;DHT22;57920;54.796;9.430;2022-11-11T06:48:22;18.90;58.50
70460;DHT22;57920;54.796;9.430;2022-11-11T06:50:48;18.90;58.50
70460;DHT22;57920;54.796;9.430;2022-11-11T06:53:15;18.90;58.50
70460;DHT22;57920;54.796;9.430;2022-11-11T06:55:41;18.90;58.50
70460;DHT22;57920;54.796;9.430;2022-11-11T06:58:15;18.90;58.50
70460;DHT22;57920;54.796;9.430;2022-11-11T07:00:42;18.90;58.60
70460;DHT22;57920;54.796;9.430;2022-11-11T07:03:10;19.00;58.70
70460;DHT22;57920;54.796;9.430;2022-11-11T07:05:36;19.00;59.10
70460;DHT22;57920;54.796;9.430;2022-11-11T07:08:03;19.00;59.30
70460;DHT22;57920;54.796;9.430;2022-11-11T07:10:30;19.10;59.00
70460;DHT22;57920;54.796;9.430;2022-11-11T07:12:56;19.00;58.90
70460;DHT22;57920;54.796;9.430;2022-11-11T07:15:21;19.00;59.00
70460;DHT22;57920;54.796;9.430;2022-11-11T07:17:50;19.00;58.90
70460;DHT22;57920;54.796;9.430;2022-11-11T07:20:16;19.00;58.80
70460;DHT22;57920;54.796;9.430;2022-11-11T07:22:42;19.00;59.30
70460;DHT22;57920;54.796;9.430;2022-11-11T07:25:07;19.10;59.00
70460;DHT22;57920;54.796;9.430;2022-11-11T07:27:40;19.10;59.00
70460;DHT22;57920;54.796;9.430;2022-11-11T07:30:07;19.10;59.00
70460;DHT22;57920;54.796;9.430;2022-11-11T07:32:33;19.10;59.00
70460;DHT22;57920;54.796;9.430;2022-11-11T07:34:59;19.10;59.20
70460;DHT22;57920;54.796;9.430;2022-11-11T07:37:24;19.20;59.30
70460;DHT22;57920;54.796;9.430;2022-11-11T07:39:50;19.20;59.10
70460;DHT22;57920;54.796;9.430;2022-11-11T07:42:15;19.20;59.20
70460;DHT22;57920;54.796;9.430;2022-11-11T07:44:41;19.20;59.50
70460;DHT22;57920;54.796;9.430;2022-11-11T07:47:07;19.10;59.20
70460;DHT22;57920;54.796;9.430;2022-11-11T07:49:33;19.10;59.10
70460;DHT22;57920;54.796;9.430;2022-11-11T07:51:58;19.20;59.30
70460;DHT22;57920;54.796;9.430;2022-11-11T07:54:24;19.20;59.40
70460;DHT22;57920;54.796;9.430;2022-11-11T07:56:50;19.20;59.70
70460;DHT22;57920;54.796;9.430;2022-11-11T07:59:16;19.30;59.40
70460;DHT22;57920;54.796;9.430;2022-11-11T08:01:41;19.30;59.30
70460;DHT22;57920;54.796;9.430;2022-11-11T08:04:07;19.30;59.10
70460;DHT22;57920;54.796;9.430;2022-11-11T08:06:32;19.30;59.30
70460;DHT22;57920;54.796;9.430;2022-11-11T08:08:58;19.30;59.30
70460;DHT22;57920;54.796;9.430;2022-11-11T08:11:24;19.20;59.40
70460;DHT22;57920;54.796;9.430;2022-11-11T08:14:18;19.20;59.20
70460;DHT22;57920;54.796;9.430;2022-11-11T08:16:44;19.20;59.30
70460;DHT22;57920;54.796;9.430;2022-11-11T08:19:10;19.20;59.20
70460;DHT22;57920;54.796;9.430;2022-11-11T08:21:36;19.20;59.10
70460;DHT22;57920;54.796;9.430;2022-11-11T08:24:01;19.20;59.10
70460;DHT22;57920;54.796;9.430;2022-11-11T08:26:28;19.20;59.10
70460;DHT22;57920;54.796;9.430;2022-11-11T08:28:53;19.20;59.00
70460;DHT22;57920;54.796;9.430;2022-11-11T08:31:19;19.20;59.00
70460;DHT22;57920;54.796;9.430;2022-11-11T08:33:44;19.30;59.00
70460;DHT22;57920;54.796;9.430;2022-11-11T08:36:10;19.30;59.30
70460;DHT22;57920;54.796;9.430;2022-11-11T08:38:37;19.30;59.20
70460;DHT22;57920;54.796;9.430;2022-11-11T08:41:06;19.30;59.20
70460;DHT22;57920;54.796;9.430;2022-11-11T08:43:32;19.40;58.90
70460;DHT22;57920;54.796;9.430;2022-11-11T08:45:59;19.50;58.80
70460;DHT22;57920;54.796;9.430;2022-11-11T08:48:25;19.50;59.10
70460;DHT22;57920;54.796;9.430;2022-11-11T08:50:51;19.50;59.00
70460;DHT22;57920;54.796;9.430;2022-11-11T08:53:18;19.50;58.90
70460;DHT22;57920;54.796;9.430;2022-11-11T08:55:44;19.50;58.70
70460;DHT22;57920;54.796;9.430;2022-11-11T08:58:11;19.70;59.00
70460;DHT22;57920;54.796;9.430;2022-11-11T09:00:37;19.70;58.10
70460;DHT22;57920;54.796;9.430;2022-11-11T09:03:09;19.90;58.50
70460;DHT22;57920;54.796;9.430;2022-11-11T09:05:37;19.90;59.00
70460;DHT22;57920;54.796;9.430;2022-11-11T09:08:04;19.90;59.60
70460;DHT22;57920;54.796;9.430;2022-11-11T09:10:33;20.00;58.70
70460;DHT22;57920;54.796;9.430;2022-11-11T09:13:00;20.10;60.10
70460;DHT22;57920;54.796;9.430;2022-11-11T09:15:26;20.10;60.40
70460;DHT22;57920;54.796;9.430;2022-11-11T09:21:45;20.10;59.60
70460;DHT22;57920;54.796;9.430;2022-11-11T09:24:11;20.30;59.00
70460;DHT22;57920;54.796;9.430;2022-11-11T09:26:36;20.30;59.00
70460;DHT22;57920;54.796;9.430;2022-11-11T09:29:02;20.30;60.70
70460;DHT22;57920;54.796;9.430;2022-11-11T09:31:27;20.30;61.10
70460;DHT22;57920;54.796;9.430;2022-11-11T09:33:53;20.30;60.70
70460;DHT22;57920;54.796;9.430;2022-11-11T09:36:19;20.30;60.90
70460;DHT22;57920;54.796;9.430;2022-11-11T09:38:45;20.30;61.50
70460;DHT22;57920;54.796;9.430;2022-11-11T09:41:20;20.30;60.50
70460;DHT22;57920;54.796;9.430;2022-11-11T09:46:46;20.10;60.70
70460;DHT22;57920;54.796;9.430;2022-11-11T09:52:04;20.00;60.40
70460;DHT22;57920;54.796;9.430;2022-11-11T09:54:44;20.00;60.10
70460;DHT22;57920;54.796;9.430;2022-11-11T09:59:59;20.00;60.00
70460;DHT22;57920;54.796;9.430;2022-11-11T10:02:36;19.90;59.90
70460;DHT22;57920;54.796;9.430;2022-11-11T10:05:19;19.90;59.80
70460;DHT22;57920;54.796;9.430;2022-11-11T10:13:34;19.90;59.50
70460;DHT22;57920;54.796;9.430;2022-11-11T10:21:25;19.80;59.40
70460;DHT22;57920;54.796;9.430;2022-11-11T10:23:59;19.70;59.40
70460;DHT22;57920;54.796;9.430;2022-11-11T10:26:29;19.70;59.40
70460;DHT22;57920;54.796;9.430;2022-11-11T10:28:57;19.70;59.40
70460;DHT22;57920;54.796;9.430;2022-11-11T10:31:24;19.70;59.40
70460;DHT22;57920;54.796;9.430;2022-11-11T10:34:02;19.90;59.70
70460;DHT22;57920;54.796;9.430;2022-11-11T10:36:29;19.90;59.60
70460;DHT22;57920;54.796;9.430;2022-11-11T10:39:03;19.90;59.80
70460;DHT22;57920;54.796;9.430;2022-11-11T10:41:48;20.00;59.40
70460;DHT22;57920;54.796;9.430;2022-11-11T10:44:26;20.00;59.30
70460;DHT22;57920;54.796;9.430;2022-11-11T10:46:57;19.90;59.30
70460;DHT22;57920;54.796;9.430;2022-11-11T10:49:30;19.90;59.60
70460;DHT22;57920;54.796;9.430;2022-11-11T10:52:03;19.90;59.80
70460;DHT22;57920;54.796;9.430;2022-11-11T10:54:48;20.00;60.00
70460;DHT22;57920;54.796;9.430;2022-11-11T10:57:36;20.00;60.20
70460;DHT22;57920;54.796;9.430;2022-11-11T11:00:06;20.00;60.30
70460;DHT22;57920;54.796;9.430;2022-11-11T11:05:48;20.00;60.10
70460;DHT22;57920;54.796;9.430;2022-11-11T11:08:19;20.10;60.00
70460;DHT22;57920;54.796;9.430;2022-11-11T11:10:59;20.10;60.10
70460;DHT22;57920;54.796;9.430;2022-11-11T11:13:35;20.10;60.20
70460;DHT22;57920;54.796;9.430;2022-11-11T11:16:07;20.10;60.10
70460;DHT22;57920;54.796;9.430;2022-11-11T11:19:16;20.20;60.10
70460;DHT22;57920;54.796;9.430;2022-11-11T11:21:48;20.20;60.30
70460;DHT22;57920;54.796;9.430;2022-11-11T11:24:19;20.10;60.40
70460;DHT22;57920;54.796;9.430;2022-11-11T11:26:47;20.10;60.40
70460;DHT22;57920;54.796;9.430;2022-11-11T11:29:27;20.10;60.40
70460;DHT22;57920;54.796;9.430;2022-11-11T11:31:53;20.10;60.10
70460;DHT22;57920;54.796;9.430;2022-11-11T11:34:19;20.10;60.30
70460;DHT22;57920;54.796;9.430;2022-11-11T11:37:00;20.00;60.20
70460;DHT22;57920;54.796;9.430;2022-11-11T11:39:32;20.00;60.10
70460;DHT22;57920;54.796;9.430;2022-11-11T11:41:58;20.00;60.00
70460;DHT22;57920;54.796;9.430;2022-11-11T11:44:25;20.00;59.80
70460;DHT22;57920;54.796;9.430;2022-11-11T11:46:54;20.00;59.80
70460;DHT22;57920;54.796;9.430;2022-11-11T11:49:43;20.00;59.70
70460;DHT22;57920;54.796;9.430;2022-11-11T11:52:15;19.90;59.60
70460;DHT22;57920;54.796;9.430;2022-11-11T11:54:56;19.90;59.60
70460;DHT22;57920;54.796;9.430;2022-11-11T12:00:13;19.90;59.50
70460;DHT22;57920;54.796;9.430;2022-11-11T12:05:42;19.90;59.40
70460;DHT22;57920;54.796;9.430;2022-11-11T12:10:58;19.90;59.40
70460;DHT22;57920;54.796;9.430;2022-11-11T12:13:40;19.90;59.40
70460;DHT22;57920;54.796;9.430;2022-11-11T12:21:48;19.80;59.40
70460;DHT22;57920;54.796;9.430;2022-11-11T12:24:37;19.70;59.40
70460;DHT22;57920;54.796;9.430;2022-11-11T12:32:54;19.80;59.80
70460;DHT22;57920;54.796;9.430;2022-11-11T12:38:39;19.90;59.50
70460;DHT22;57920;54.796;9.430;2022-11-11T12:44:02;20.00;59.60
70460;DHT22;57920;54.796;9.430;2022-11-11T12:54:54;19.90;60.00
70460;DHT22;57920;54.796;9.430;2022-11-11T13:03:05;19.90;60.10
70460;DHT22;57920;54.796;9.430;2022-11-11T13:08:48;20.00;60.40
70460;DHT22;57920;54.796;9.430;2022-11-11T13:11:25;19.90;60.10
70460;DHT22;57920;54.796;9.430;2022-11-11T13:14:34;19.90;59.90
70460;DHT22;57920;54.796;9.430;2022-11-11T13:17:22;19.90;59.80
70460;DHT22;57920;54.796;9.430;2022-11-11T13:19:55;19.90;60.10
70460;DHT22;57920;54.796;9.430;2022-11-11T13:24:48;19.90;59.90
70460;DHT22;57920;54.796;9.430;2022-11-11T13:35:32;19.90;59.70
70460;DHT22;57920;54.796;9.430;2022-11-11T13:37:55;19.90;59.80
70460;DHT22;57920;54.796;9.430;2022-11-11T13:40:40;19.90;59.70
70460;DHT22;57920;54.796;9.430;2022-11-11T13:46:05;19.70;59.60
70460;DHT22;57920;54.796;9.430;2022-11-11T13:48:34;19.70;59.60
70460;DHT22;57920;54.796;9.430;2022-11-11T13:51:19;19.70;59.70
70460;DHT22;57920;54.796;9.430;2022-11-11T13:53:46;19.70;59.70
70460;DHT22;57920;54.796;9.430;2022-11-11T13:56:21;19.70;59.70
70460;DHT22;57920;54.796;9.430;2022-11-11T13:58:48;19.70;59.80
70460;DHT22;57920;54.796;9.430;2022-11-11T14:01:15;19.60;59.70
70460;DHT22;57920;54.796;9.430;2022-11-11T14:13:55;19.50;59.80
70460;DHT22;57920;54.796;9.430;2022-11-11T14:26:59;19.50;59.80
70460;DHT22;57920;54.796;9.430;2022-11-11T14:29:31;19.50;59.80
70460;DHT22;57920;54.796;9.430;2022-11-11T14:40:23;19.40;59.80
70460;DHT22;57920;54.796;9.430;2022-11-11T14:42:49;19.40;59.80
70460;DHT22;57920;54.796;9.430;2022-11-11T14:47:56;19.40;59.80
70460;DHT22;57920;54.796;9.430;2022-11-11T14:50:42;19.40;59.90
70460;DHT22;57920;54.796;9.430;2022-11-11T14:53:15;19.40;59.90
70460;DHT22;57920;54.796;9.430;2022-11-11T14:55:42;19.40;59.90
70460;DHT22;57920;54.796;9.430;2022-11-11T14:58:09;19.40;59.90
70460;DHT22;57920;54.796;9.430;2022-11-11T15:00:47;19.30;59.90
70460;DHT22;57920;54.796;9.430;2022-11-11T15:06:37;19.30;59.90
70460;DHT22;57920;54.796;9.430;2022-11-11T15:12:06;19.30;59.80
70460;DHT22;57920;54.796;9.430;2022-11-11T15:17:42;19.30;59.90
70460;DHT22;57920;54.796;9.430;2022-11-11T15:20:24;19.30;59.80
70460;DHT22;57920;54.796;9.430;2022-11-11T15:25:53;19.30;59.90
70460;DHT22;57920;54.796;9.430;2022-11-11T15:28:36;19.30;59.90
70460;DHT22;57920;54.796;9.430;2022-11-11T15:31:21;19.30;59.90
70460;DHT22;57920;54.796;9.430;2022-11-11T15:34:24;19.30;59.90
70460;DHT22;57920;54.796;9.430;2022-11-11T15:37:05;19.30;59.90
70460;DHT22;57920;54.796;9.430;2022-11-11T15:39:43;19.30;59.90
70460;DHT22;57920;54.796;9.430;2022-11-11T15:42:30;19.30;59.90
70460;DHT22;57920;54.796;9.430;2022-11-11T15:45:01;19.30;59.90
70460;DHT22;57920;54.796;9.430;2022-11-11T15:47:29;19.30;59.90
70460;DHT22;57920;54.796;9.430;2022-11-11T15:49:59;19.20;59.90
70460;DHT22;57920;54.796;9.430;2022-11-11T15:54:53;19.20;59.90
70460;DHT22;57920;54.796;9.430;2022-11-11T15:57:31;19.20;59.90
70460;DHT22;57920;54.796;9.430;2022-11-11T15:59:58;19.20;59.80
70460;DHT22;57920;54.796;9.430;2022-11-11T16:02:26;19.20;59.90
70460;DHT22;57920;54.796;9.430;2022-11-11T16:05:19;19.20;59.90
70460;DHT22;57920;54.796;9.430;2022-11-11T16:07:46;19.20;59.80
70460;DHT22;57920;54.796;9.430;2022-11-11T16:10:14;19.20;59.90
70460;DHT22;57920;54.796;9.430;2022-11-11T16:12:56;19.20;59.90
70460;DHT22;57920;54.796;9.430;2022-11-11T16:15:44;19.20;59.90
70460;DHT22;57920;54.796;9.430;2022-11-11T16:20:58;19.20;59.80
70460;DHT22;57920;54.796;9.430;2022-11-11T16:23:25;19.20;59.80
70460;DHT22;57920;54.796;9.430;2022-11-11T16:25:51;19.20;59.80
70460;DHT22;57920;54.796;9.430;2022-11-11T16:28:17;19.20;59.80
70460;DHT22;57920;54.796;9.430;2022-11-11T16:30:43;19.20;59.80
70460;DHT22;57920;54.796;9.430;2022-11-11T16:35:49;19.20;59.80
70460;DHT22;57920;54.796;9.430;2022-11-11T16:38:32;19.20;59.80
70460;DHT22;57920;54.796;9.430;2022-11-11T16:40:58;19.20;59.80
70460;DHT22;57920;54.796;9.430;2022-11-11T16:46:03;19.20;59.80
70460;DHT22;57920;54.796;9.430;2022-11-11T16:51:05;19.20;59.80
70460;DHT22;57920;54.796;9.430;2022-11-11T16:53:34;19.20;59.80
70460;DHT22;57920;54.796;9.430;2022-11-11T16:56:02;19.20;59.80
70460;DHT22;57920;54.796;9.430;2022-11-11T16:58:28;19.10;59.80
70460;DHT22;57920;54.796;9.430;2022-11-11T17:01:01;19.20;59.80
70460;DHT22;57920;54.796;9.430;2022-11-11T17:03:28;19.20;59.80
70460;DHT22;57920;54.796;9.430;2022-11-11T17:06:02;19.10;59.80
70460;DHT22;57920;54.796;9.430;2022-11-11T17:11:05;19.20;59.80
70460;DHT22;57920;54.796;9.430;2022-11-11T17:13:32;19.10;59.80
70460;DHT22;57920;54.796;9.430;2022-11-11T17:16:01;19.20;59.70
70460;DHT22;57920;54.796;9.430;2022-11-11T17:18:36;19.20;59.70
70460;DHT22;57920;54.796;9.430;2022-11-11T17:21:02;19.10;59.70
70460;DHT22;57920;54.796;9.430;2022-11-11T17:23:28;19.20;59.70
70460;DHT22;57920;54.796;9.430;2022-11-11T17:25:55;19.10;59.70
70460;DHT22;57920;54.796;9.430;2022-11-11T17:28:21;19.10;59.70
70460;DHT22;57920;54.796;9.430;2022-11-11T17:30:47;19.10;59.70
70460;DHT22;57920;54.796;9.430;2022-11-11T17:33:13;19.10;59.70
70460;DHT22;57920;54.796;9.430;2022-11-11T17:35:38;19.10;59.70
70460;DHT22;57920;54.796;9.430;2022-11-11T17:38:04;19.10;59.70
70460;DHT22;57920;54.796;9.430;2022-11-11T17:40:30;19.10;59.70
70460;DHT22;57920;54.796;9.430;2022-11-11T17:42:55;19.10;59.70
70460;DHT22;57920;54.796;9.430;2022-11-11T17:45:21;19.10;59.70
70460;DHT22;57920;54.796;9.430;2022-11-11T17:47:47;19.10;59.70
70460;DHT22;57920;54.796;9.430;2022-11-11T17:50:12;19.10;59.70
70460;DHT22;57920;54.796;9.430;2022-11-11T17:52:38;19.10;59.70
70460;DHT22;57920;54.796;9.430;2022-11-11T17:55:04;19.10;59.70
70460;DHT22;57920;54.796;9.430;2022-11-11T17:57:30;19.10;59.70
70460;DHT22;57920;54.796;9.430;2022-11-11T17:59:56;19.10;59.70
70460;DHT22;57920;54.796;9.430;2022-11-11T18:02:21;19.10;59.70
70460;DHT22;57920;54.796;9.430;2022-11-11T18:04:47;19.10;59.70
70460;DHT22;57920;54.796;9.430;2022-11-11T18:07:12;19.10;59.70
70460;DHT22;57920;54.796;9.430;2022-11-11T18:09:38;19.10;59.70
70460;DHT22;57920;54.796;9.430;2022-11-11T18:12:04;19.10;59.70
70460;DHT22;57920;54.796;9.430;2022-11-11T18:14:29;19.10;59.70
70460;DHT22;57920;54.796;9.430;2022-11-11T18:16:55;19.10;59.70
70460;DHT22;57920;54.796;9.430;2022-11-11T18:19:20;19.10;59.70
70460;DHT22;57920;54.796;9.430;2022-11-11T18:21:46;19.10;59.70
70460;DHT22;57920;54.796;9.430;2022-11-11T18:24:13;19.10;59.60
70460;DHT22;57920;54.796;9.430;2022-11-11T18:26:38;19.10;59.60
70460;DHT22;57920;54.796;9.430;2022-11-11T18:29:08;19.10;59.60
70460;DHT22;57920;54.796;9.430;2022-11-11T18:31:35;19.10;59.60
70460;DHT22;57920;54.796;9.430;2022-11-11T18:34:01;19.10;59.50